Latest Coastal Weather Observations for Devonport Airport

IDT60701

Issued at 1:52 pm EDT Saturday 10 December 2016 (issued every 10 minutes, with the page automatically refreshed every 10 minutes)

About coastal observations | Map of coastal stations | Coastal observations for TAS | Marine services | Other Formats
Station Details ID: 091126 Name: DEVONPORT AIRPORT Lat: -41.17 Lon: 146.43 Height: 8.0 m
Data from the previous 72 hours. | See also: Recent months at Devonport Airport
Date/Time
EDT
Temp
°C
Wind Pressure Rain since
9am
mm
Weather Cloud Vis
km
Sea
Height
m
Swell
Dir  Spd
kts
Gust
kts
hPa Trend Height
m
Period
s
Dir
10/01:30pm 16.8 NW 23 28 1018.3 - 0.0 - - 10 - - - -
10/01:00pm 17.0 NW 20 26 1018.5 - 0.0 - - 10 - - - -
10/12:30pm 16.5 NW 18 22 1018.9 - 0.0 - Partly cloudy 10 - - - -
10/12:00pm 18.0 WNW 17 23 1019.0 - 0.0 - - 10 - - - -
10/11:30am 16.5 WNW 17 24 1019.1 - 0.0 - Partly cloudy 10 - - - -
10/11:00am 15.6 NW 18 23 1019.3 - 0.0 - Partly cloudy 10 - - - -
10/10:30am 15.8 NW 16 20 1019.4 - 0.0 - Partly cloudy 10 - - - -
10/10:00am 14.6 NW 16 21 1019.7 - 0.0 - Partly cloudy 10 - - - -
10/09:30am 14.1 NW 17 22 1020.1 - 0.0 - Partly cloudy 10 - - - -
10/09:00am 13.8 NW 16 19 1020.2 - 0.0 - - 10 - - - -
10/08:30am 13.8 W 16 19 1020.1 - 0.0 - - 10 - - - -
10/08:00am 13.0 WNW 15 18 1019.9 - 0.0 - - 10 - - - -
10/07:30am 12.2 W 13 16 1019.7 - 0.0 - - 10 - - - -
10/07:00am 11.8 W 14 17 1019.2 - 0.0 - - 10 - - - -
10/06:30am 10.6 W 12 15 1019.0 - 0.0 - - 10 - - - -
10/06:00am 10.6 W 12 16 1018.6 - 0.0 - Mostly cloudy 10 - - - -
10/05:30am 9.8 W 11 14 1018.4 - 0.0 - - 10 - - - -
10/05:00am 9.3 WNW 10 12 1018.2 - 0.0 - - 10 - - - -
10/04:30am 9.0 W 10 12 1018.0 - 0.0 - - 10 - - - -
10/04:00am 7.6 W 7 8 1017.9 - 0.0 - - 10 - - - -
10/03:30am 8.1 WSW 7 8 1018.1 - 0.0 - - 10 - - - -
10/03:00am 7.8 W 8 9 1018.1 - 0.0 - - 10 - - - -
10/02:30am 9.1 W 13 17 1018.2 - 0.0 - - 10 - - - -
10/02:00am 8.4 W 11 13 1018.0 - 0.0 - - 10 - - - -
10/01:30am 9.1 W 11 13 1018.1 - 0.0 - - 10 - - - -
10/01:00am 9.3 W 13 16 1018.4 - 0.0 - - 10 - - - -
10/12:30am 10.2 W 15 18 1018.1 - 0.0 - - 10 - - - -
10/12:00am 10.1 W 14 17 1018.1 - 0.0 - Cloudy 10 - - - -
 
Date/Time
EDT
Temp
°C
Wind Pressure Rain since
9am
mm
Weather Cloud Vis
km
Sea
Height
m
Swell
Dir  Spd
kts
Gust
kts
hPa Trend Height
m
Period
s
Dir
09/11:30pm 10.7 W 14 16 1018.1 - 0.0 - - 10 - - - -
09/11:00pm 10.8 WNW 11 14 1018.0 - 0.0 - - 10 - - - -
09/10:30pm 10.1 W 12 14 1018.1 - 0.0 - Partly cloudy 10 - - - -
09/10:00pm 10.2 W 10 14 1018.0 - 0.0 - Partly cloudy 10 - - - -
09/09:30pm 10.4 W 11 14 1017.3 - 0.0 - - 10 - - - -
09/09:00pm 10.8 WSW 9 12 1017.0 - 0.0 - - 10 - - - -
09/08:30pm 11.3 WSW 11 18 1016.6 - 0.0 - - 10 - - - -
09/08:00pm 12.3 WSW 17 22 1016.0 - 0.0 - - 10 - - - -
09/07:30pm 13.3 WSW 17 23 1015.7 - 0.0 - - 10 - - - -
09/07:00pm 13.9 WSW 17 22 1015.2 - 0.0 - - 10 - - - -
09/06:30pm 14.6 WSW 17 23 1014.4 - 0.0 - - 10 - - - -
09/06:00pm 14.8 WSW 22 27 1013.5 - 0.0 - - 10 - - - -
09/05:30pm 15.3 WSW 21 28 1012.8 - 0.0 - - 10 - - - -
09/05:00pm 15.3 WSW 20 26 1012.4 - 0.0 - - 10 - - - -
09/04:30pm 16.8 WSW 17 22 1012.2 - 0.0 - - 10 - - - -
09/04:14pm 16.4 WSW 20 30 1012.0 - 0.0 - - 10 - - - -
09/04:00pm 16.5 WSW 19 26 1011.8 - 0.0 - Partly cloudy 10 - - - -
09/03:30pm 16.3 WSW 19 28 1011.4 - 0.0 - Partly cloudy 10 - - - -
09/03:16pm 16.7 WSW 16 26 1011.1 - 0.0 - Partly cloudy 10 - - - -
09/03:00pm 17.5 WSW 18 24 1011.2 - 0.0 - Cloudy 10 - - - -
09/02:42pm 16.0 WSW 15 25 1011.2 - 0.0 - Partly cloudy 10 - - - -
09/02:30pm 16.0 WSW 13 20 1010.9 - 0.0 - Partly cloudy 10 - - - -
09/02:00pm 16.8 WSW 19 25 1010.5 - 0.0 - Partly cloudy 10 - - - -
09/01:30pm 17.0 WSW 16 25 1010.4 - 0.0 - Partly cloudy 10 - - - -
09/01:00pm 15.9 WSW 18 27 1010.0 - 0.0 - - 10 - - - -
09/12:30pm 16.0 WSW 19 25 1009.9 - 0.0 - Partly cloudy 10 - - - -
09/12:00pm 16.4 WSW 14 21 1009.7 - 0.0 - Partly cloudy 10 - - - -
09/11:30am 15.8 SW 17 23 1009.4 - 0.0 - Partly cloudy 10 - - - -
09/11:00am 15.2 SW 17 26 1008.8 - 0.0 - - 10 - - - -
09/10:30am 14.5 SW 16 23 1008.9 - 0.0 - - 10 - - - -
09/10:01am 13.7 SW 19 31 1008.5 - 0.0 - - 10 - - - -
09/10:00am 13.8 SW 19 27 1008.4 - 0.0 - - 10 - - - -
09/09:52am 14.1 SW 15 25 1008.2 - 0.0 - - 10 - - - -
09/09:30am 13.7 SW 16 22 1007.4 - 0.0 - - 10 - - - -
09/09:00am 13.4 SW 14 21 1007.4 - 8.6 - - 10 - - - -
09/08:39am 12.7 SW 16 26 1007.0 - 8.6 - - 10 - - - -
09/08:30am 12.0 SW 18 25 1006.8 - 8.6 - - 10 - - - -
09/08:00am 11.6 WSW 15 20 1006.4 - 8.6 - - 10 - - - -
09/07:30am 11.0 W 13 16 1005.9 - 8.6 - Partly cloudy 10 - - - -
09/07:00am 10.7 W 11 14 1005.3 - 8.6 - Partly cloudy 10 - - - -
09/06:30am 9.3 WSW 11 12 1004.7 - 8.6 - - 10 - - - -
09/06:00am 8.5 WSW 12 15 1004.0 - 8.6 - - 10 - - - -
09/05:30am 7.7 WSW 11 14 1003.6 - 8.6 - - 10 - - - -
09/05:00am 8.6 WSW 14 19 1002.7 - 8.6 - - 10 - - - -
09/04:30am 9.2 WSW 17 23 1002.0 - 8.6 - - 10 - - - -
09/04:00am 10.1 SW 19 25 1001.1 - 8.6 - - 10 - - - -
09/03:49am 9.8 WSW 15 27 1000.9 - 8.6 - - 10 - - - -
09/03:30am 9.7 WSW 13 22 1000.7 - 8.6 - - 10 - - - -
09/03:00am 9.1 WSW 11 14 1000.2 - 8.6 - Mostly clear 10 - - - -
09/02:30am 9.4 W 9 12 999.7 - 8.6 - - 10 - - - -
09/02:00am 9.9 W 11 15 999.4 - 8.6 - - 10 - - - -
09/01:30am 10.3 W 13 21 998.8 - 8.6 - - 10 - - - -
09/01:00am 10.3 W 12 17 998.2 - 8.6 - - 10 - - - -
09/12:30am 10.9 WSW 13 17 997.6 - 8.6 - - 10 - - - -
09/12:00am 11.4 W 16 22 997.0 - 8.6 - - 10 - - - -
 
Date/Time
EDT
Temp
°C
Wind Pressure Rain since
9am
mm
Weather Cloud Vis
km
Sea
Height
m
Swell
Dir  Spd
kts
Gust
kts
hPa Trend Height
m
Period
s
Dir
08/11:30pm 11.8 W 16 20 996.3 - 8.6 - - 10 - - - -
08/11:00pm 12.3 W 15 19 996.0 - 8.6 - - 10 - - - -
08/10:38pm 12.5 W 19 29 995.0 - 8.6 - - 10 - - - -
08/10:30pm 12.8 W 21 26 994.7 - 8.6 - - 10 - - - -
08/10:00pm 13.1 W 23 33 994.0 - 8.6 - Partly cloudy 10 - - - -
08/09:52pm 13.5 W 21 33 993.7 - 8.6 - Partly cloudy 10 - - - -
08/09:30pm 13.6 W 19 27 993.5 - 8.6 - Partly cloudy 10 - - - -
08/09:00pm 13.6 WNW 23 30 992.6 - 8.6 - Cloudy 10 - - - -
08/08:30pm 13.8 WNW 24 33 992.1 - 8.6 - Partly cloudy 10 - - - -
08/08:00pm 14.0 WNW 25 30 991.5 - 8.6 - Partly cloudy 10 - - - -
08/07:30pm 13.7 NW 26 32 990.8 - 8.6 - Partly cloudy 10 - - - -
08/07:00pm 13.7 NW 30 37 990.0 - 8.6 - Partly cloudy 10 - - - -
08/06:30pm 14.2 NW 25 32 989.5 - 8.6 - Partly cloudy 10 - - - -
08/06:00pm 14.7 WNW 27 34 989.0 - 8.6 - Cloudy 10 - - - -
08/05:50pm 14.9 NW 24 34 988.9 - 8.6 - Partly cloudy 10 - - - -
08/05:30pm 15.5 WNW 24 33 988.7 - 8.6 - Partly cloudy 10 - - - -
08/05:12pm 17.3 WNW 23 32 988.2 - 8.6 - Partly cloudy 10 - - - -
08/05:00pm 15.7 NW 26 34 987.8 - 8.6 - Partly cloudy 8 - - - -
08/04:47pm 15.5 NW 25 35 987.8 - 8.6 - Partly cloudy 8 - - - -
08/04:30pm 16.1 NNW 27 35 988.3 - 8.6 - Partly cloudy 9 - - - -
08/04:00pm 14.9 NNW 26 33 988.7 - 8.6 - Partly cloudy 7 - - - -
08/03:30pm 15.5 NW 27 37 989.7 - 8.6 - Partly cloudy 10 - - - -
08/03:22pm 16.1 NW 26 37 989.7 - 8.6 - Partly cloudy 10 - - - -
08/03:00pm 15.7 NNW 25 31 990.3 - 8.6 - Cloudy 10 - - - -
08/02:37pm 16.8 NNW 22 32 990.5 - 8.6 - Partly cloudy 10 - - - -
08/02:30pm 16.2 NNW 22 30 990.7 - 8.6 - Partly cloudy 10 - - - -
08/02:00pm 16.7 NW 22 29 991.1 - 8.6 - Partly cloudy 10 - - - -
08/01:30pm 17.0 NW 22 30 991.4 - 8.6 - Partly cloudy 10 - - - -
08/01:00pm 15.6 NW 24 32 991.5 - 8.6 - Partly cloudy 10 - - - -
08/12:49pm 15.7 NW 23 29 991.7 - 8.6 - Partly cloudy 9 - - - -
08/12:37pm 14.9 NW 23 32 991.8 - 8.6 - Partly cloudy 6 - - - -
08/12:30pm 14.9 NNW 25 32 991.8 - 8.4 - Partly cloudy 9 - - - -
08/12:29pm 14.9 NNW 25 32 991.9 - 8.4 - Partly cloudy 10 - - - -
08/12:16pm 15.2 NNW 23 30 991.7 - 8.4 - Partly cloudy 5 - - - -
08/12:09pm 15.2 NNW 24 31 991.7 - 8.4 - Partly cloudy 6 - - - -
08/12:08pm 15.2 NNW 24 31 991.8 - 8.2 - Partly cloudy 7 - - - -
08/12:00pm 15.2 NNW 23 29 991.9 - 8.2 Rain Cloudy 7 - - - -
08/11:57am 15.2 NNW 22 27 991.9 - 8.2 - Partly cloudy 6 - - - -
08/11:30am 15.2 N 24 34 991.5 - 5.2 - Cloudy - - - - -
08/11:00am 15.4 N 25 39 991.4 - 4.4 - Partly cloudy - - - - -
08/10:51am 15.2 NNE 25 35 991.6 - 4.2 - Partly cloudy - - - - -
08/10:30am 15.2 NNE 27 36 991.0 - 3.6 - Partly cloudy - - - - -
08/10:00am 15.2 NNE 24 32 992.4 - 0.8 - Partly cloudy 6 - - - -
08/09:59am 15.3 NNE 25 32 992.4 - 0.8 - Partly cloudy 6 - - - -
08/09:32am 15.2 NE 21 31 993.9 - 0.4 - Partly cloudy 7 - - - -
08/09:30am 15.1 NE 22 31 993.8 - 0.4 - Partly cloudy 7 - - - -
08/09:26am 15.1 NE 24 31 993.9 - 0.4 - Partly cloudy 7 - - - -
08/09:06am 14.7 NE 27 37 994.5 - 0.0 - Partly cloudy 6 - - - -
08/09:03am 14.7 ENE 27 37 994.5 - 0.0 - Partly cloudy - - - - -
08/09:00am 14.6 ENE 27 34 994.8 - 11.4 Rain Cloudy - - - - -
08/08:40am 14.5 ENE 24 31 995.6 - 10.4 - Partly cloudy - - - - -
08/08:30am 14.4 ENE 23 29 996.2 - 10.2 - Partly cloudy - - - - -
08/08:04am 14.4 NE 23 29 997.6 - 8.0 - Partly cloudy 6 - - - -
08/08:00am 14.4 NE 21 29 997.7 - 7.8 - Partly cloudy 7 - - - -
08/07:45am 14.2 NE 19 27 998.2 - 7.0 - Partly cloudy 9 - - - -
08/07:30am 13.9 ENE 13 23 998.9 - 6.2 - Partly cloudy 8 - - - -
08/07:27am 13.7 ENE 11 19 999.0 - 6.0 - Partly cloudy 8 - - - -
08/07:00am 12.8 ENE 4 6 999.8 - 4.4 - Partly cloudy 10 - - - -
08/06:43am 12.4 SE 7 9 999.8 - 3.6 - Partly cloudy 8 - - - -
08/06:30am 12.3 SE 10 15 999.9 - 2.6 - Partly cloudy 10 - - - -
08/06:00am 12.3 SSE 9 12 1000.4 - 1.8 Rain Cloudy 10 - - - -
08/05:30am 12.2 SE 11 14 1000.8 - 1.4 - Partly cloudy 10 - - - -
08/05:00am 12.3 SSE 8 10 1002.4 - 0.2 - Partly cloudy 10 - - - -
08/04:30am 12.2 SSE 9 12 1002.2 - 0.2 - Cloudy 10 - - - -
08/04:00am 12.4 SSE 7 9 1003.4 - 0.0 - Partly cloudy 10 - - - -
08/03:30am 12.2 SSE 9 12 1004.3 - 0.0 - Partly cloudy 10 - - - -
08/03:00am 12.1 SSE 6 8 1004.4 - 0.0 - Cloudy 10 - - - -
08/02:30am 12.5 ESE 5 7 1005.0 - 0.0 - Partly cloudy 10 - - - -
08/02:00am 13.1 NE 7 9 1005.8 - 0.0 - Partly cloudy 10 - - - -
08/01:56am 13.2 NE 7 9 1006.2 - 0.0 - Partly cloudy 10 - - - -
08/01:30am 13.6 NE 10 14 1006.7 - 0.0 - Partly cloudy 10 - - - -
08/01:00am 12.8 ENE 6 9 1007.1 - 0.0 - Cloudy - - - - -
08/12:30am 11.8 ENE 6 7 1007.6 - 0.0 - Partly cloudy 10 - - - -
08/12:12am 10.7 E 5 6 1008.1 - 0.0 - Partly cloudy 10 - - - -
08/12:00am 10.9 E 6 7 1008.0 - 0.0 - Mostly clear - - - - -
 
Date/Time
EDT
Temp
°C
Wind Pressure Rain since
9am
mm
Weather Cloud Vis
km
Sea
Height
m
Swell
Dir  Spd
kts
Gust
kts
hPa Trend Height
m
Period
s
Dir
07/11:30pm 10.9 ESE 4 4 1008.6 - 0.0 - - - - - - -
07/11:00pm 10.8 SE 5 6 1008.7 - 0.0 - - 10 - - - -
07/10:30pm 11.9 ENE 5 6 1009.2 - 0.0 - - 10 - - - -
07/10:00pm 11.2 NE 4 5 1009.1 - 0.0 - - 10 - - - -
07/09:30pm 11.5 ENE 5 6 1009.7 - 0.0 - - 10 - - - -
07/09:00pm 13.4 NNW 3 5 1009.9 - 0.0 - Mostly cloudy 10 - - - -
07/08:30pm 14.1 NNW 5 6 1010.4 - 0.0 - - 10 - - - -
07/08:00pm 14.8 NNW 7 9 1010.6 - 0.0 - - 10 - - - -
07/07:30pm 15.2 NW 9 11 1010.7 - 0.0 - - 10 - - - -
07/07:00pm 15.8 NW 8 10 1010.9 - 0.0 - Partly cloudy 10 - - - -
07/06:30pm 15.5 WNW 10 13 1011.3 - 0.0 - Partly cloudy 10 - - - -
07/06:00pm 15.4 WNW 12 16 1011.5 - 0.0 - Cloudy 10 - - - -
07/05:30pm 15.8 NW 13 18 1011.7 - 0.0 - Partly cloudy 10 - - - -
07/05:00pm 16.7 NW 14 18 1012.0 - 0.0 - Partly cloudy 10 - - - -
07/04:30pm 16.0 NW 16 20 1012.3 - 0.0 - Partly cloudy 10 - - - -
07/04:00pm 16.1 NW 15 18 1012.2 - 0.0 - Cloudy 10 - - - -
07/03:30pm 16.0 NW 15 20 1012.6 - 0.0 - Partly cloudy 10 - - - -
07/03:00pm 16.0 NW 16 21 1012.6 - 0.0 - Cloudy 10 - - - -
07/02:30pm 16.0 NW 16 20 1012.8 - 0.0 - Cloudy 10 - - - -
07/02:06pm 15.9 NW 14 18 1012.9 - 0.0 - Partly cloudy 10 - - - -
07/02:00pm 16.5 NW 15 19 1012.9 - 0.0 - Partly cloudy 10 - - - -

Other Formats:

Comma delimited format used in spreadsheet applications
http://www.bom.gov.au/fwo/IDT60701/IDT60701.95960.axf

JavaScript Object Notation format (JSON) in row-major order
http://www.bom.gov.au/fwo/IDT60701/IDT60701.95960.json